sensor_id;sensor_type;location;lat;lon;timestamp;P1;durP1;ratioP1;P2;durP2;ratioP2
14470;SDS011;7321;50.802;4.336;2024-01-15T00:01:28;30.20;;;18.90;;
14470;SDS011;7321;50.802;4.336;2024-01-15T00:03:54;31.17;;;18.43;;
14470;SDS011;7321;50.802;4.336;2024-01-15T00:06:20;30.40;;;17.23;;
14470;SDS011;7321;50.802;4.336;2024-01-15T00:08:46;29.13;;;17.63;;
14470;SDS011;7321;50.802;4.336;2024-01-15T00:11:12;29.37;;;17.17;;
14470;SDS011;7321;50.802;4.336;2024-01-15T00:13:38;28.03;;;16.73;;
14470;SDS011;7321;50.802;4.336;2024-01-15T00:16:04;29.87;;;16.67;;
14470;SDS011;7321;50.802;4.336;2024-01-15T00:18:30;26.57;;;16.27;;
14470;SDS011;7321;50.802;4.336;2024-01-15T00:20:56;29.80;;;16.80;;
14470;SDS011;7321;50.802;4.336;2024-01-15T00:23:22;25.63;;;16.97;;
14470;SDS011;7321;50.802;4.336;2024-01-15T00:25:50;27.63;;;17.17;;
14470;SDS011;7321;50.802;4.336;2024-01-15T00:28:16;28.50;;;16.13;;
14470;SDS011;7321;50.802;4.336;2024-01-15T00:30:42;24.53;;;15.50;;
14470;SDS011;7321;50.802;4.336;2024-01-15T00:33:08;24.63;;;14.77;;
14470;SDS011;7321;50.802;4.336;2024-01-15T00:35:34;26.90;;;15.70;;
14470;SDS011;7321;50.802;4.336;2024-01-15T00:38:00;24.50;;;14.20;;
14470;SDS011;7321;50.802;4.336;2024-01-15T00:40:25;24.83;;;14.50;;
14470;SDS011;7321;50.802;4.336;2024-01-15T00:42:51;24.17;;;14.33;;
14470;SDS011;7321;50.802;4.336;2024-01-15T00:45:17;21.57;;;13.77;;
14470;SDS011;7321;50.802;4.336;2024-01-15T00:47:43;23.90;;;13.80;;
14470;SDS011;7321;50.802;4.336;2024-01-15T00:50:09;19.93;;;12.80;;
14470;SDS011;7321;50.802;4.336;2024-01-15T00:52:35;18.60;;;13.27;;
14470;SDS011;7321;50.802;4.336;2024-01-15T00:55:01;20.53;;;12.80;;
14470;SDS011;7321;50.802;4.336;2024-01-15T00:57:27;18.67;;;12.60;;
14470;SDS011;7321;50.802;4.336;2024-01-15T00:59:53;18.37;;;12.23;;
14470;SDS011;7321;50.802;4.336;2024-01-15T01:02:18;19.33;;;12.63;;
14470;SDS011;7321;50.802;4.336;2024-01-15T01:04:44;17.97;;;11.57;;
14470;SDS011;7321;50.802;4.336;2024-01-15T01:07:10;18.07;;;11.87;;
14470;SDS011;7321;50.802;4.336;2024-01-15T01:09:36;20.33;;;13.37;;
14470;SDS011;7321;50.802;4.336;2024-01-15T01:12:02;17.60;;;11.67;;
14470;SDS011;7321;50.802;4.336;2024-01-15T01:14:28;17.30;;;11.47;;
14470;SDS011;7321;50.802;4.336;2024-01-15T01:16:53;18.10;;;11.20;;
14470;SDS011;7321;50.802;4.336;2024-01-15T01:19:19;19.00;;;12.63;;
14470;SDS011;7321;50.802;4.336;2024-01-15T01:21:45;17.73;;;11.73;;
14470;SDS011;7321;50.802;4.336;2024-01-15T01:24:11;19.03;;;11.83;;
14470;SDS011;7321;50.802;4.336;2024-01-15T01:26:36;19.10;;;12.97;;
14470;SDS011;7321;50.802;4.336;2024-01-15T01:29:02;18.87;;;12.27;;
14470;SDS011;7321;50.802;4.336;2024-01-15T01:31:28;17.40;;;11.87;;
14470;SDS011;7321;50.802;4.336;2024-01-15T01:33:54;17.37;;;11.67;;
14470;SDS011;7321;50.802;4.336;2024-01-15T01:36:20;17.23;;;12.03;;
14470;SDS011;7321;50.802;4.336;2024-01-15T01:38:45;18.70;;;11.57;;
14470;SDS011;7321;50.802;4.336;2024-01-15T01:41:11;18.27;;;12.07;;
14470;SDS011;7321;50.802;4.336;2024-01-15T01:43:37;17.40;;;11.90;;
14470;SDS011;7321;50.802;4.336;2024-01-15T01:46:03;16.57;;;12.03;;
14470;SDS011;7321;50.802;4.336;2024-01-15T01:48:30;16.60;;;11.30;;
14470;SDS011;7321;50.802;4.336;2024-01-15T01:50:57;18.27;;;10.63;;
14470;SDS011;7321;50.802;4.336;2024-01-15T01:53:25;15.77;;;10.80;;
14470;SDS011;7321;50.802;4.336;2024-01-15T01:55:52;17.20;;;11.20;;
14470;SDS011;7321;50.802;4.336;2024-01-15T01:58:19;15.60;;;10.50;;
14470;SDS011;7321;50.802;4.336;2024-01-15T02:00:46;15.57;;;10.10;;
14470;SDS011;7321;50.802;4.336;2024-01-15T02:03:13;14.30;;;9.50;;
14470;SDS011;7321;50.802;4.336;2024-01-15T02:05:39;13.23;;;9.77;;
14470;SDS011;7321;50.802;4.336;2024-01-15T02:08:05;16.07;;;10.67;;
14470;SDS011;7321;50.802;4.336;2024-01-15T02:10:31;13.50;;;10.10;;
14470;SDS011;7321;50.802;4.336;2024-01-15T02:12:57;15.73;;;9.20;;
14470;SDS011;7321;50.802;4.336;2024-01-15T02:15:23;14.13;;;9.47;;
14470;SDS011;7321;50.802;4.336;2024-01-15T02:17:59;11.37;;;8.53;;
14470;SDS011;7321;50.802;4.336;2024-01-15T02:20:26;10.80;;;7.77;;
14470;SDS011;7321;50.802;4.336;2024-01-15T02:22:52;11.27;;;7.13;;
14470;SDS011;7321;50.802;4.336;2024-01-15T02:25:18;8.50;;;6.27;;
14470;SDS011;7321;50.802;4.336;2024-01-15T02:27:44;9.17;;;6.90;;
14470;SDS011;7321;50.802;4.336;2024-01-15T02:30:11;11.93;;;8.27;;
14470;SDS011;7321;50.802;4.336;2024-01-15T02:32:40;11.30;;;7.60;;
14470;SDS011;7321;50.802;4.336;2024-01-15T02:35:06;11.40;;;8.90;;
14470;SDS011;7321;50.802;4.336;2024-01-15T02:37:32;13.30;;;9.70;;
14470;SDS011;7321;50.802;4.336;2024-01-15T02:39:58;14.30;;;10.10;;
14470;SDS011;7321;50.802;4.336;2024-01-15T02:42:25;14.67;;;10.87;;
14470;SDS011;7321;50.802;4.336;2024-01-15T02:44:51;15.47;;;9.67;;
14470;SDS011;7321;50.802;4.336;2024-01-15T02:47:17;17.30;;;11.60;;
14470;SDS011;7321;50.802;4.336;2024-01-15T02:49:43;16.67;;;11.90;;
14470;SDS011;7321;50.802;4.336;2024-01-15T02:52:09;18.63;;;12.17;;
14470;SDS011;7321;50.802;4.336;2024-01-15T02:54:35;16.40;;;11.67;;
14470;SDS011;7321;50.802;4.336;2024-01-15T02:57:01;18.83;;;12.67;;
14470;SDS011;7321;50.802;4.336;2024-01-15T02:59:26;18.03;;;11.60;;
14470;SDS011;7321;50.802;4.336;2024-01-15T03:01:52;17.77;;;11.67;;
14470;SDS011;7321;50.802;4.336;2024-01-15T03:04:18;20.03;;;12.97;;
14470;SDS011;7321;50.802;4.336;2024-01-15T03:06:44;18.77;;;12.23;;
14470;SDS011;7321;50.802;4.336;2024-01-15T03:09:10;15.90;;;11.60;;
14470;SDS011;7321;50.802;4.336;2024-01-15T03:11:38;19.10;;;12.90;;
14470;SDS011;7321;50.802;4.336;2024-01-15T03:14:05;19.13;;;12.50;;
14470;SDS011;7321;50.802;4.336;2024-01-15T03:16:30;19.77;;;12.87;;
14470;SDS011;7321;50.802;4.336;2024-01-15T03:18:56;20.13;;;12.37;;
14470;SDS011;7321;50.802;4.336;2024-01-15T03:21:22;17.40;;;12.17;;
14470;SDS011;7321;50.802;4.336;2024-01-15T03:23:48;22.07;;;13.40;;
14470;SDS011;7321;50.802;4.336;2024-01-15T03:26:13;19.37;;;13.77;;
14470;SDS011;7321;50.802;4.336;2024-01-15T03:28:39;20.87;;;13.77;;
14470;SDS011;7321;50.802;4.336;2024-01-15T03:31:05;19.00;;;13.03;;
14470;SDS011;7321;50.802;4.336;2024-01-15T03:33:32;20.50;;;13.77;;
14470;SDS011;7321;50.802;4.336;2024-01-15T03:35:58;21.53;;;13.33;;
14470;SDS011;7321;50.802;4.336;2024-01-15T03:38:26;26.67;;;14.50;;
14470;SDS011;7321;50.802;4.336;2024-01-15T03:40:53;22.00;;;14.40;;
14470;SDS011;7321;50.802;4.336;2024-01-15T03:43:19;23.57;;;15.37;;
14470;SDS011;7321;50.802;4.336;2024-01-15T03:45:44;20.77;;;14.57;;
14470;SDS011;7321;50.802;4.336;2024-01-15T03:48:11;22.53;;;14.73;;
14470;SDS011;7321;50.802;4.336;2024-01-15T03:50:37;24.37;;;15.93;;
14470;SDS011;7321;50.802;4.336;2024-01-15T03:53:03;24.47;;;16.07;;
14470;SDS011;7321;50.802;4.336;2024-01-15T03:55:28;21.27;;;15.13;;
14470;SDS011;7321;50.802;4.336;2024-01-15T03:57:54;23.87;;;15.90;;
14470;SDS011;7321;50.802;4.336;2024-01-15T04:00:20;26.87;;;15.80;;
14470;SDS011;7321;50.802;4.336;2024-01-15T04:02:46;25.20;;;15.53;;
14470;SDS011;7321;50.802;4.336;2024-01-15T04:05:12;25.83;;;17.00;;
14470;SDS011;7321;50.802;4.336;2024-01-15T04:07:38;24.60;;;15.60;;
14470;SDS011;7321;50.802;4.336;2024-01-15T04:10:03;25.20;;;16.47;;
14470;SDS011;7321;50.802;4.336;2024-01-15T04:12:30;26.20;;;16.23;;
14470;SDS011;7321;50.802;4.336;2024-01-15T04:14:56;24.70;;;16.07;;
14470;SDS011;7321;50.802;4.336;2024-01-15T04:17:22;25.97;;;16.50;;
14470;SDS011;7321;50.802;4.336;2024-01-15T04:19:47;26.63;;;16.13;;
14470;SDS011;7321;50.802;4.336;2024-01-15T04:22:13;21.33;;;15.93;;
14470;SDS011;7321;50.802;4.336;2024-01-15T04:24:39;24.57;;;16.00;;
14470;SDS011;7321;50.802;4.336;2024-01-15T04:27:05;26.07;;;16.03;;
14470;SDS011;7321;50.802;4.336;2024-01-15T04:29:32;27.13;;;17.07;;
14470;SDS011;7321;50.802;4.336;2024-01-15T04:31:58;22.30;;;15.47;;
14470;SDS011;7321;50.802;4.336;2024-01-15T04:34:23;23.60;;;16.07;;
14470;SDS011;7321;50.802;4.336;2024-01-15T04:36:49;24.23;;;16.30;;
14470;SDS011;7321;50.802;4.336;2024-01-15T04:39:15;26.00;;;15.10;;
14470;SDS011;7321;50.802;4.336;2024-01-15T04:41:41;21.63;;;15.03;;
14470;SDS011;7321;50.802;4.336;2024-01-15T04:44:07;21.80;;;15.27;;
14470;SDS011;7321;50.802;4.336;2024-01-15T04:46:32;21.80;;;15.07;;
14470;SDS011;7321;50.802;4.336;2024-01-15T04:48:58;21.83;;;14.93;;
14470;SDS011;7321;50.802;4.336;2024-01-15T04:51:24;18.37;;;13.10;;
14470;SDS011;7321;50.802;4.336;2024-01-15T04:53:50;20.93;;;12.90;;
14470;SDS011;7321;50.802;4.336;2024-01-15T04:56:15;20.30;;;12.63;;
14470;SDS011;7321;50.802;4.336;2024-01-15T04:58:42;20.57;;;12.60;;
14470;SDS011;7321;50.802;4.336;2024-01-15T05:01:08;14.67;;;10.30;;
14470;SDS011;7321;50.802;4.336;2024-01-15T05:03:34;13.80;;;9.40;;
14470;SDS011;7321;50.802;4.336;2024-01-15T05:05:59;15.40;;;8.83;;
14470;SDS011;7321;50.802;4.336;2024-01-15T05:08:25;9.97;;;7.30;;
14470;SDS011;7321;50.802;4.336;2024-01-15T05:10:51;10.00;;;7.07;;
14470;SDS011;7321;50.802;4.336;2024-01-15T05:13:17;10.43;;;6.97;;
14470;SDS011;7321;50.802;4.336;2024-01-15T05:15:42;10.00;;;6.63;;
14470;SDS011;7321;50.802;4.336;2024-01-15T05:18:08;12.23;;;7.17;;
14470;SDS011;7321;50.802;4.336;2024-01-15T05:20:34;12.67;;;7.30;;
14470;SDS011;7321;50.802;4.336;2024-01-15T05:23:00;10.27;;;6.73;;
14470;SDS011;7321;50.802;4.336;2024-01-15T05:25:26;10.80;;;7.60;;
14470;SDS011;7321;50.802;4.336;2024-01-15T05:27:52;8.10;;;6.53;;
14470;SDS011;7321;50.802;4.336;2024-01-15T05:30:17;11.53;;;6.70;;
14470;SDS011;7321;50.802;4.336;2024-01-15T05:32:43;10.87;;;7.30;;
14470;SDS011;7321;50.802;4.336;2024-01-15T05:35:09;9.17;;;6.57;;
14470;SDS011;7321;50.802;4.336;2024-01-15T05:37:35;10.50;;;7.27;;
14470;SDS011;7321;50.802;4.336;2024-01-15T05:40:01;12.13;;;8.30;;
14470;SDS011;7321;50.802;4.336;2024-01-15T05:42:29;12.13;;;7.87;;
14470;SDS011;7321;50.802;4.336;2024-01-15T05:44:57;10.97;;;8.10;;
14470;SDS011;7321;50.802;4.336;2024-01-15T05:47:24;11.77;;;8.20;;
14470;SDS011;7321;50.802;4.336;2024-01-15T05:49:50;8.70;;;6.93;;
14470;SDS011;7321;50.802;4.336;2024-01-15T05:52:16;6.83;;;5.30;;
14470;SDS011;7321;50.802;4.336;2024-01-15T05:54:42;7.43;;;4.67;;
14470;SDS011;7321;50.802;4.336;2024-01-15T05:57:08;6.43;;;4.27;;
14470;SDS011;7321;50.802;4.336;2024-01-15T05:59:33;7.30;;;4.20;;
14470;SDS011;7321;50.802;4.336;2024-01-15T06:02:01;4.97;;;3.10;;
14470;SDS011;7321;50.802;4.336;2024-01-15T06:04:27;9.70;;;4.17;;
14470;SDS011;7321;50.802;4.336;2024-01-15T06:06:52;5.60;;;3.10;;
14470;SDS011;7321;50.802;4.336;2024-01-15T06:09:18;5.60;;;3.20;;
14470;SDS011;7321;50.802;4.336;2024-01-15T06:11:44;8.17;;;3.60;;
14470;SDS011;7321;50.802;4.336;2024-01-15T06:14:10;6.30;;;3.80;;
14470;SDS011;7321;50.802;4.336;2024-01-15T06:16:36;8.10;;;4.13;;
14470;SDS011;7321;50.802;4.336;2024-01-15T06:19:02;10.03;;;4.10;;
14470;SDS011;7321;50.802;4.336;2024-01-15T06:21:28;7.27;;;4.83;;
14470;SDS011;7321;50.802;4.336;2024-01-15T06:23:54;9.73;;;5.57;;
14470;SDS011;7321;50.802;4.336;2024-01-15T06:26:22;9.73;;;5.70;;
14470;SDS011;7321;50.802;4.336;2024-01-15T06:28:48;8.67;;;5.57;;
14470;SDS011;7321;50.802;4.336;2024-01-15T06:31:14;8.10;;;5.83;;
14470;SDS011;7321;50.802;4.336;2024-01-15T06:33:40;8.13;;;6.07;;
14470;SDS011;7321;50.802;4.336;2024-01-15T06:36:06;10.37;;;6.63;;
14470;SDS011;7321;50.802;4.336;2024-01-15T06:38:32;8.53;;;6.57;;
14470;SDS011;7321;50.802;4.336;2024-01-15T06:40:58;11.93;;;8.07;;
14470;SDS011;7321;50.802;4.336;2024-01-15T06:43:24;12.97;;;7.93;;
14470;SDS011;7321;50.802;4.336;2024-01-15T06:45:50;12.83;;;8.70;;
14470;SDS011;7321;50.802;4.336;2024-01-15T06:48:16;13.43;;;9.27;;
14470;SDS011;7321;50.802;4.336;2024-01-15T06:50:42;13.33;;;10.00;;
14470;SDS011;7321;50.802;4.336;2024-01-15T06:53:08;14.30;;;10.17;;
14470;SDS011;7321;50.802;4.336;2024-01-15T06:55:34;15.27;;;10.87;;
14470;SDS011;7321;50.802;4.336;2024-01-15T06:58:00;12.63;;;9.90;;
14470;SDS011;7321;50.802;4.336;2024-01-15T07:00:26;16.43;;;11.63;;
14470;SDS011;7321;50.802;4.336;2024-01-15T07:02:52;12.97;;;10.90;;
14470;SDS011;7321;50.802;4.336;2024-01-15T07:05:20;14.67;;;10.87;;
14470;SDS011;7321;50.802;4.336;2024-01-15T07:07:46;13.23;;;10.83;;
14470;SDS011;7321;50.802;4.336;2024-01-15T07:10:12;15.07;;;11.57;;
14470;SDS011;7321;50.802;4.336;2024-01-15T07:12:39;16.50;;;11.20;;
14470;SDS011;7321;50.802;4.336;2024-01-15T07:15:07;16.60;;;10.77;;
14470;SDS011;7321;50.802;4.336;2024-01-15T07:17:33;13.97;;;9.97;;
14470;SDS011;7321;50.802;4.336;2024-01-15T07:20:14;13.40;;;10.33;;
14470;SDS011;7321;50.802;4.336;2024-01-15T07:22:49;13.00;;;9.90;;
14470;SDS011;7321;50.802;4.336;2024-01-15T07:25:22;11.63;;;8.60;;
14470;SDS011;7321;50.802;4.336;2024-01-15T07:27:47;10.67;;;8.90;;
14470;SDS011;7321;50.802;4.336;2024-01-15T07:30:13;11.90;;;9.13;;
14470;SDS011;7321;50.802;4.336;2024-01-15T07:32:42;11.20;;;8.80;;
14470;SDS011;7321;50.802;4.336;2024-01-15T07:35:14;13.73;;;9.23;;
14470;SDS011;7321;50.802;4.336;2024-01-15T07:37:45;15.17;;;9.23;;
14470;SDS011;7321;50.802;4.336;2024-01-15T07:40:11;15.10;;;10.87;;
14470;SDS011;7321;50.802;4.336;2024-01-15T07:42:37;17.40;;;10.90;;
14470;SDS011;7321;50.802;4.336;2024-01-15T07:45:04;15.93;;;10.20;;
14470;SDS011;7321;50.802;4.336;2024-01-15T07:47:30;16.37;;;9.33;;
14470;SDS011;7321;50.802;4.336;2024-01-15T07:49:56;11.67;;;9.37;;
14470;SDS011;7321;50.802;4.336;2024-01-15T07:52:22;14.83;;;10.00;;
14470;SDS011;7321;50.802;4.336;2024-01-15T07:54:48;15.13;;;10.00;;
14470;SDS011;7321;50.802;4.336;2024-01-15T07:57:16;12.80;;;9.90;;
14470;SDS011;7321;50.802;4.336;2024-01-15T07:59:42;16.83;;;11.07;;
14470;SDS011;7321;50.802;4.336;2024-01-15T08:02:08;13.60;;;9.80;;
14470;SDS011;7321;50.802;4.336;2024-01-15T08:04:36;12.63;;;9.33;;
14470;SDS011;7321;50.802;4.336;2024-01-15T08:07:03;15.30;;;9.23;;
14470;SDS011;7321;50.802;4.336;2024-01-15T08:09:31;14.37;;;9.10;;
14470;SDS011;7321;50.802;4.336;2024-01-15T08:11:56;16.07;;;9.23;;
14470;SDS011;7321;50.802;4.336;2024-01-15T08:14:23;12.43;;;9.23;;
14470;SDS011;7321;50.802;4.336;2024-01-15T08:16:49;16.33;;;9.17;;
14470;SDS011;7321;50.802;4.336;2024-01-15T08:19:16;14.77;;;8.00;;
14470;SDS011;7321;50.802;4.336;2024-01-15T08:21:42;11.20;;;8.00;;
14470;SDS011;7321;50.802;4.336;2024-01-15T08:24:08;11.27;;;6.73;;
14470;SDS011;7321;50.802;4.336;2024-01-15T08:26:34;8.40;;;6.23;;
14470;SDS011;7321;50.802;4.336;2024-01-15T08:29:00;6.63;;;5.20;;
14470;SDS011;7321;50.802;4.336;2024-01-15T08:31:26;8.90;;;5.80;;
14470;SDS011;7321;50.802;4.336;2024-01-15T08:33:52;8.93;;;4.80;;
14470;SDS011;7321;50.802;4.336;2024-01-15T08:36:18;9.53;;;5.10;;
14470;SDS011;7321;50.802;4.336;2024-01-15T08:38:44;8.07;;;4.20;;
14470;SDS011;7321;50.802;4.336;2024-01-15T08:41:10;9.73;;;5.10;;
14470;SDS011;7321;50.802;4.336;2024-01-15T08:43:36;7.97;;;4.33;;
14470;SDS011;7321;50.802;4.336;2024-01-15T08:46:02;8.53;;;4.57;;
14470;SDS011;7321;50.802;4.336;2024-01-15T08:48:28;5.97;;;3.90;;
14470;SDS011;7321;50.802;4.336;2024-01-15T08:50:55;7.07;;;3.80;;
14470;SDS011;7321;50.802;4.336;2024-01-15T08:53:21;9.67;;;4.10;;
14470;SDS011;7321;50.802;4.336;2024-01-15T08:55:50;8.60;;;4.77;;
14470;SDS011;7321;50.802;4.336;2024-01-15T08:58:16;6.33;;;3.70;;
14470;SDS011;7321;50.802;4.336;2024-01-15T09:00:42;10.27;;;3.93;;
14470;SDS011;7321;50.802;4.336;2024-01-15T09:03:08;8.80;;;3.90;;
14470;SDS011;7321;50.802;4.336;2024-01-15T09:05:34;8.83;;;3.13;;
14470;SDS011;7321;50.802;4.336;2024-01-15T09:08:00;4.80;;;3.27;;
14470;SDS011;7321;50.802;4.336;2024-01-15T09:10:26;9.17;;;3.53;;
14470;SDS011;7321;50.802;4.336;2024-01-15T09:12:52;8.63;;;3.50;;
14470;SDS011;7321;50.802;4.336;2024-01-15T09:15:18;8.87;;;3.80;;
14470;SDS011;7321;50.802;4.336;2024-01-15T09:17:45;9.27;;;3.83;;
14470;SDS011;7321;50.802;4.336;2024-01-15T09:20:14;7.67;;;4.23;;
14470;SDS011;7321;50.802;4.336;2024-01-15T09:22:40;8.10;;;4.90;;
14470;SDS011;7321;50.802;4.336;2024-01-15T09:25:10;9.33;;;4.53;;
14470;SDS011;7321;50.802;4.336;2024-01-15T09:27:42;8.87;;;4.50;;
14470;SDS011;7321;50.802;4.336;2024-01-15T09:30:08;10.20;;;4.43;;
14470;SDS011;7321;50.802;4.336;2024-01-15T09:32:35;12.63;;;6.77;;
14470;SDS011;7321;50.802;4.336;2024-01-15T09:35:00;14.63;;;5.73;;
14470;SDS011;7321;50.802;4.336;2024-01-15T09:37:26;12.87;;;5.10;;
14470;SDS011;7321;50.802;4.336;2024-01-15T09:39:52;12.67;;;6.10;;
14470;SDS011;7321;50.802;4.336;2024-01-15T09:42:21;12.17;;;5.87;;
14470;SDS011;7321;50.802;4.336;2024-01-15T09:44:53;11.03;;;3.80;;
14470;SDS011;7321;50.802;4.336;2024-01-15T09:47:20;8.83;;;4.07;;
14470;SDS011;7321;50.802;4.336;2024-01-15T09:49:47;7.53;;;4.63;;
14470;SDS011;7321;50.802;4.336;2024-01-15T09:52:16;8.90;;;3.90;;
14470;SDS011;7321;50.802;4.336;2024-01-15T09:54:49;5.43;;;2.63;;
14470;SDS011;7321;50.802;4.336;2024-01-15T09:57:17;8.73;;;3.10;;
14470;SDS011;7321;50.802;4.336;2024-01-15T09:59:50;7.00;;;2.60;;
14470;SDS011;7321;50.802;4.336;2024-01-15T10:02:19;7.30;;;2.87;;
14470;SDS011;7321;50.802;4.336;2024-01-15T10:04:45;7.20;;;5.03;;
14470;SDS011;7321;50.802;4.336;2024-01-15T10:07:15;5.73;;;2.97;;
14470;SDS011;7321;50.802;4.336;2024-01-15T10:09:45;8.40;;;4.87;;
14470;SDS011;7321;50.802;4.336;2024-01-15T10:12:11;6.37;;;4.40;;
14470;SDS011;7321;50.802;4.336;2024-01-15T10:14:37;4.77;;;2.83;;
14470;SDS011;7321;50.802;4.336;2024-01-15T10:17:13;6.63;;;2.97;;
14470;SDS011;7321;50.802;4.336;2024-01-15T10:19:42;8.50;;;3.00;;
14470;SDS011;7321;50.802;4.336;2024-01-15T10:22:13;4.90;;;2.27;;
14470;SDS011;7321;50.802;4.336;2024-01-15T10:24:43;4.47;;;2.27;;
14470;SDS011;7321;50.802;4.336;2024-01-15T10:27:12;4.67;;;2.60;;
14470;SDS011;7321;50.802;4.336;2024-01-15T10:29:49;5.97;;;3.03;;
14470;SDS011;7321;50.802;4.336;2024-01-15T10:32:18;7.20;;;2.53;;
14470;SDS011;7321;50.802;4.336;2024-01-15T10:34:53;7.67;;;2.27;;
14470;SDS011;7321;50.802;4.336;2024-01-15T10:37:23;4.93;;;2.40;;
14470;SDS011;7321;50.802;4.336;2024-01-15T10:39:52;7.93;;;3.10;;
14470;SDS011;7321;50.802;4.336;2024-01-15T10:42:45;5.80;;;3.67;;
14470;SDS011;7321;50.802;4.336;2024-01-15T10:45:19;6.00;;;2.20;;
14470;SDS011;7321;50.802;4.336;2024-01-15T10:47:48;5.47;;;2.20;;
14470;SDS011;7321;50.802;4.336;2024-01-15T10:50:25;5.13;;;2.23;;
14470;SDS011;7321;50.802;4.336;2024-01-15T10:53:00;4.83;;;2.23;;
14470;SDS011;7321;50.802;4.336;2024-01-15T10:55:42;6.37;;;2.00;;
14470;SDS011;7321;50.802;4.336;2024-01-15T10:58:08;6.33;;;2.07;;
14470;SDS011;7321;50.802;4.336;2024-01-15T11:00:37;6.10;;;2.10;;
14470;SDS011;7321;50.802;4.336;2024-01-15T11:03:05;8.33;;;1.80;;
14470;SDS011;7321;50.802;4.336;2024-01-15T11:05:57;5.20;;;2.37;;
14470;SDS011;7321;50.802;4.336;2024-01-15T11:08:24;6.93;;;2.90;;
14470;SDS011;7321;50.802;4.336;2024-01-15T11:10:51;5.30;;;2.73;;
14470;SDS011;7321;50.802;4.336;2024-01-15T11:16:05;6.43;;;1.93;;
14470;SDS011;7321;50.802;4.336;2024-01-15T11:18:36;5.50;;;2.07;;
14470;SDS011;7321;50.802;4.336;2024-01-15T11:23:46;6.53;;;1.70;;
14470;SDS011;7321;50.802;4.336;2024-01-15T11:26:32;3.63;;;2.13;;
14470;SDS011;7321;50.802;4.336;2024-01-15T11:34:05;7.80;;;2.50;;
14470;SDS011;7321;50.802;4.336;2024-01-15T11:41:57;5.53;;;2.20;;
14470;SDS011;7321;50.802;4.336;2024-01-15T11:44:25;7.37;;;2.30;;
14470;SDS011;7321;50.802;4.336;2024-01-15T11:46:58;6.60;;;2.10;;
14470;SDS011;7321;50.802;4.336;2024-01-15T11:52:22;4.87;;;1.70;;
14470;SDS011;7321;50.802;4.336;2024-01-15T11:57:55;8.17;;;2.20;;
14470;SDS011;7321;50.802;4.336;2024-01-15T12:00:29;4.93;;;1.70;;
14470;SDS011;7321;50.802;4.336;2024-01-15T12:02:55;6.63;;;1.90;;
14470;SDS011;7321;50.802;4.336;2024-01-15T12:05:26;6.23;;;2.07;;
14470;SDS011;7321;50.802;4.336;2024-01-15T12:07:52;4.90;;;2.10;;
14470;SDS011;7321;50.802;4.336;2024-01-15T12:10:19;4.67;;;1.87;;
14470;SDS011;7321;50.802;4.336;2024-01-15T12:15:15;3.17;;;1.47;;
14470;SDS011;7321;50.802;4.336;2024-01-15T12:17:41;4.20;;;1.60;;
14470;SDS011;7321;50.802;4.336;2024-01-15T12:20:07;4.73;;;1.80;;
14470;SDS011;7321;50.802;4.336;2024-01-15T12:22:34;5.60;;;1.90;;
14470;SDS011;7321;50.802;4.336;2024-01-15T12:25:06;5.33;;;2.07;;
14470;SDS011;7321;50.802;4.336;2024-01-15T12:27:35;7.60;;;1.97;;
14470;SDS011;7321;50.802;4.336;2024-01-15T12:30:02;6.00;;;1.93;;
14470;SDS011;7321;50.802;4.336;2024-01-15T12:32:37;2.80;;;1.73;;
14470;SDS011;7321;50.802;4.336;2024-01-15T12:35:12;6.13;;;2.00;;
14470;SDS011;7321;50.802;4.336;2024-01-15T12:37:42;5.67;;;1.50;;
14470;SDS011;7321;50.802;4.336;2024-01-15T12:40:09;3.10;;;1.60;;
14470;SDS011;7321;50.802;4.336;2024-01-15T12:42:44;3.63;;;1.27;;
14470;SDS011;7321;50.802;4.336;2024-01-15T12:45:22;7.67;;;2.07;;
14470;SDS011;7321;50.802;4.336;2024-01-15T12:48:00;6.30;;;1.70;;
14470;SDS011;7321;50.802;4.336;2024-01-15T12:50:38;4.43;;;2.10;;
14470;SDS011;7321;50.802;4.336;2024-01-15T12:53:07;4.80;;;2.03;;
14470;SDS011;7321;50.802;4.336;2024-01-15T12:55:41;6.30;;;1.77;;
14470;SDS011;7321;50.802;4.336;2024-01-15T12:58:07;6.63;;;1.63;;
14470;SDS011;7321;50.802;4.336;2024-01-15T13:00:41;4.87;;;1.37;;
14470;SDS011;7321;50.802;4.336;2024-01-15T13:03:09;6.80;;;2.20;;
14470;SDS011;7321;50.802;4.336;2024-01-15T13:05:38;5.63;;;2.10;;
14470;SDS011;7321;50.802;4.336;2024-01-15T13:08:07;7.27;;;2.60;;
14470;SDS011;7321;50.802;4.336;2024-01-15T13:10:32;6.40;;;2.13;;
14470;SDS011;7321;50.802;4.336;2024-01-15T13:12:58;6.37;;;2.23;;
14470;SDS011;7321;50.802;4.336;2024-01-15T13:15:24;9.73;;;2.93;;
14470;SDS011;7321;50.802;4.336;2024-01-15T13:17:50;7.97;;;2.90;;
14470;SDS011;7321;50.802;4.336;2024-01-15T13:20:16;8.57;;;2.60;;
14470;SDS011;7321;50.802;4.336;2024-01-15T13:22:42;7.47;;;2.33;;
14470;SDS011;7321;50.802;4.336;2024-01-15T13:25:09;8.50;;;1.60;;
14470;SDS011;7321;50.802;4.336;2024-01-15T13:27:36;6.63;;;1.80;;
14470;SDS011;7321;50.802;4.336;2024-01-15T13:30:03;5.30;;;2.00;;
14470;SDS011;7321;50.802;4.336;2024-01-15T13:32:31;8.23;;;1.77;;
14470;SDS011;7321;50.802;4.336;2024-01-15T13:34:57;8.13;;;2.43;;
14470;SDS011;7321;50.802;4.336;2024-01-15T13:37:24;6.23;;;2.00;;
14470;SDS011;7321;50.802;4.336;2024-01-15T13:39:51;6.57;;;1.93;;
14470;SDS011;7321;50.802;4.336;2024-01-15T13:42:17;6.43;;;2.10;;
14470;SDS011;7321;50.802;4.336;2024-01-15T13:44:43;4.63;;;2.03;;
14470;SDS011;7321;50.802;4.336;2024-01-15T13:47:09;6.30;;;2.50;;
14470;SDS011;7321;50.802;4.336;2024-01-15T13:49:40;8.03;;;1.80;;
14470;SDS011;7321;50.802;4.336;2024-01-15T13:52:06;6.40;;;1.70;;
14470;SDS011;7321;50.802;4.336;2024-01-15T13:54:31;6.93;;;2.03;;
14470;SDS011;7321;50.802;4.336;2024-01-15T13:56:57;6.40;;;1.90;;
14470;SDS011;7321;50.802;4.336;2024-01-15T13:59:24;7.10;;;1.83;;
14470;SDS011;7321;50.802;4.336;2024-01-15T14:01:50;6.30;;;2.13;;
14470;SDS011;7321;50.802;4.336;2024-01-15T14:04:16;7.13;;;1.77;;
14470;SDS011;7321;50.802;4.336;2024-01-15T14:06:42;6.13;;;1.77;;
14470;SDS011;7321;50.802;4.336;2024-01-15T14:09:07;5.77;;;3.10;;
14470;SDS011;7321;50.802;4.336;2024-01-15T14:11:36;4.77;;;2.03;;
14470;SDS011;7321;50.802;4.336;2024-01-15T14:14:03;7.10;;;2.47;;
14470;SDS011;7321;50.802;4.336;2024-01-15T14:16:29;4.80;;;3.53;;
14470;SDS011;7321;50.802;4.336;2024-01-15T14:18:54;8.03;;;2.53;;
14470;SDS011;7321;50.802;4.336;2024-01-15T14:21:21;5.80;;;2.20;;
14470;SDS011;7321;50.802;4.336;2024-01-15T14:23:46;6.53;;;2.37;;
14470;SDS011;7321;50.802;4.336;2024-01-15T14:26:13;10.70;;;3.83;;
14470;SDS011;7321;50.802;4.336;2024-01-15T14:28:39;9.53;;;2.10;;
14470;SDS011;7321;50.802;4.336;2024-01-15T14:31:04;6.43;;;2.13;;
14470;SDS011;7321;50.802;4.336;2024-01-15T14:33:31;7.57;;;4.57;;
14470;SDS011;7321;50.802;4.336;2024-01-15T14:35:57;5.63;;;2.40;;
14470;SDS011;7321;50.802;4.336;2024-01-15T14:38:23;5.17;;;2.20;;
14470;SDS011;7321;50.802;4.336;2024-01-15T14:40:49;5.20;;;2.37;;
14470;SDS011;7321;50.802;4.336;2024-01-15T14:43:15;4.77;;;2.00;;
14470;SDS011;7321;50.802;4.336;2024-01-15T14:45:41;4.30;;;1.77;;
14470;SDS011;7321;50.802;4.336;2024-01-15T14:48:06;3.73;;;2.00;;
14470;SDS011;7321;50.802;4.336;2024-01-15T14:50:32;5.77;;;1.70;;
14470;SDS011;7321;50.802;4.336;2024-01-15T14:52:58;4.00;;;1.80;;
14470;SDS011;7321;50.802;4.336;2024-01-15T14:55:24;4.97;;;2.17;;
14470;SDS011;7321;50.802;4.336;2024-01-15T14:57:50;3.47;;;1.70;;
14470;SDS011;7321;50.802;4.336;2024-01-15T15:00:17;4.80;;;2.13;;
14470;SDS011;7321;50.802;4.336;2024-01-15T15:02:43;7.03;;;2.10;;
14470;SDS011;7321;50.802;4.336;2024-01-15T15:05:09;5.63;;;2.17;;
14470;SDS011;7321;50.802;4.336;2024-01-15T15:07:36;5.63;;;1.93;;
14470;SDS011;7321;50.802;4.336;2024-01-15T15:10:07;4.90;;;1.80;;
14470;SDS011;7321;50.802;4.336;2024-01-15T15:12:37;1.40;;;1.30;;
14470;SDS011;7321;50.802;4.336;2024-01-15T15:15:03;2.03;;;1.27;;